sensor_id;sensor_type;location;lat;lon;timestamp;P1;durP1;ratioP1;P2;durP2;ratioP2
79365;SDS011;68833;53.160;17.920;2023-05-07T00:01:42;25.50;;;16.40;;
79365;SDS011;68833;53.160;17.920;2023-05-07T00:04:10;24.90;;;15.00;;
79365;SDS011;68833;53.160;17.920;2023-05-07T00:06:37;23.60;;;15.80;;
79365;SDS011;68833;53.160;17.920;2023-05-07T00:09:05;22.00;;;14.50;;
79365;SDS011;68833;53.160;17.920;2023-05-07T00:11:33;18.90;;;14.70;;
79365;SDS011;68833;53.160;17.920;2023-05-07T00:14:00;25.10;;;14.90;;
79365;SDS011;68833;53.160;17.920;2023-05-07T00:16:27;22.90;;;14.50;;
79365;SDS011;68833;53.160;17.920;2023-05-07T00:18:54;20.20;;;13.70;;
79365;SDS011;68833;53.160;17.920;2023-05-07T00:21:21;21.50;;;13.20;;
79365;SDS011;68833;53.160;17.920;2023-05-07T00:23:49;22.60;;;12.90;;
79365;SDS011;68833;53.160;17.920;2023-05-07T00:26:17;20.50;;;13.50;;
79365;SDS011;68833;53.160;17.920;2023-05-07T00:28:44;21.50;;;13.80;;
79365;SDS011;68833;53.160;17.920;2023-05-07T00:31:11;22.80;;;15.10;;
79365;SDS011;68833;53.160;17.920;2023-05-07T00:33:38;21.70;;;14.50;;
79365;SDS011;68833;53.160;17.920;2023-05-07T00:36:06;24.30;;;14.80;;
79365;SDS011;68833;53.160;17.920;2023-05-07T00:38:33;24.20;;;15.20;;
79365;SDS011;68833;53.160;17.920;2023-05-07T00:41:00;24.80;;;16.20;;
79365;SDS011;68833;53.160;17.920;2023-05-07T00:43:28;28.30;;;16.90;;
79365;SDS011;68833;53.160;17.920;2023-05-07T00:45:57;22.90;;;15.40;;
79365;SDS011;68833;53.160;17.920;2023-05-07T00:48:24;24.20;;;15.50;;
79365;SDS011;68833;53.160;17.920;2023-05-07T00:50:52;26.60;;;16.20;;
79365;SDS011;68833;53.160;17.920;2023-05-07T00:53:20;27.90;;;15.60;;
79365;SDS011;68833;53.160;17.920;2023-05-07T00:55:47;27.30;;;17.80;;
79365;SDS011;68833;53.160;17.920;2023-05-07T00:58:16;29.80;;;20.20;;
79365;SDS011;68833;53.160;17.920;2023-05-07T01:00:43;28.00;;;18.10;;
79365;SDS011;68833;53.160;17.920;2023-05-07T01:03:11;25.70;;;16.90;;
79365;SDS011;68833;53.160;17.920;2023-05-07T01:05:38;26.30;;;15.90;;
79365;SDS011;68833;53.160;17.920;2023-05-07T01:08:07;24.50;;;15.60;;
79365;SDS011;68833;53.160;17.920;2023-05-07T01:10:35;23.40;;;14.70;;
79365;SDS011;68833;53.160;17.920;2023-05-07T01:13:02;26.60;;;16.20;;
79365;SDS011;68833;53.160;17.920;2023-05-07T01:15:30;27.10;;;14.80;;
79365;SDS011;68833;53.160;17.920;2023-05-07T01:17:58;24.60;;;15.40;;
79365;SDS011;68833;53.160;17.920;2023-05-07T01:20:31;28.10;;;16.00;;
79365;SDS011;68833;53.160;17.920;2023-05-07T01:22:59;23.20;;;14.30;;
79365;SDS011;68833;53.160;17.920;2023-05-07T01:25:28;27.70;;;17.10;;
79365;SDS011;68833;53.160;17.920;2023-05-07T01:27:57;26.20;;;17.70;;
79365;SDS011;68833;53.160;17.920;2023-05-07T01:30:28;28.80;;;18.90;;
79365;SDS011;68833;53.160;17.920;2023-05-07T01:32:57;36.60;;;22.50;;
79365;SDS011;68833;53.160;17.920;2023-05-07T01:35:36;44.80;;;28.00;;
79365;SDS011;68833;53.160;17.920;2023-05-07T01:38:06;43.70;;;29.20;;
79365;SDS011;68833;53.160;17.920;2023-05-07T01:40:34;36.90;;;24.20;;
79365;SDS011;68833;53.160;17.920;2023-05-07T01:43:02;34.50;;;21.00;;
79365;SDS011;68833;53.160;17.920;2023-05-07T01:45:30;27.90;;;18.00;;
79365;SDS011;68833;53.160;17.920;2023-05-07T01:47:59;28.20;;;17.00;;
79365;SDS011;68833;53.160;17.920;2023-05-07T01:50:27;25.20;;;15.50;;
79365;SDS011;68833;53.160;17.920;2023-05-07T01:52:54;26.10;;;16.90;;
79365;SDS011;68833;53.160;17.920;2023-05-07T01:55:22;27.00;;;16.80;;
79365;SDS011;68833;53.160;17.920;2023-05-07T01:57:50;26.20;;;16.90;;
79365;SDS011;68833;53.160;17.920;2023-05-07T02:00:17;29.50;;;18.10;;
79365;SDS011;68833;53.160;17.920;2023-05-07T02:02:45;29.90;;;19.80;;
79365;SDS011;68833;53.160;17.920;2023-05-07T02:05:21;30.10;;;19.50;;
79365;SDS011;68833;53.160;17.920;2023-05-07T02:07:56;27.60;;;18.80;;
79365;SDS011;68833;53.160;17.920;2023-05-07T02:10:23;25.70;;;16.60;;
79365;SDS011;68833;53.160;17.920;2023-05-07T02:12:50;26.30;;;16.20;;
79365;SDS011;68833;53.160;17.920;2023-05-07T02:15:18;28.90;;;16.60;;
79365;SDS011;68833;53.160;17.920;2023-05-07T02:17:59;27.30;;;15.20;;
79365;SDS011;68833;53.160;17.920;2023-05-07T02:20:30;34.70;;;17.00;;
79365;SDS011;68833;53.160;17.920;2023-05-07T02:22:58;37.90;;;20.80;;
79365;SDS011;68833;53.160;17.920;2023-05-07T02:25:27;50.90;;;29.00;;
79365;SDS011;68833;53.160;17.920;2023-05-07T02:27:54;43.60;;;24.20;;
79365;SDS011;68833;53.160;17.920;2023-05-07T02:30:22;41.40;;;23.40;;
79365;SDS011;68833;53.160;17.920;2023-05-07T02:32:52;36.70;;;21.40;;
79365;SDS011;68833;53.160;17.920;2023-05-07T02:35:19;29.60;;;17.90;;
79365;SDS011;68833;53.160;17.920;2023-05-07T02:37:46;33.20;;;19.30;;
79365;SDS011;68833;53.160;17.920;2023-05-07T02:40:14;31.20;;;19.50;;
79365;SDS011;68833;53.160;17.920;2023-05-07T02:42:41;33.50;;;20.90;;
79365;SDS011;68833;53.160;17.920;2023-05-07T02:45:10;28.90;;;18.90;;
79365;SDS011;68833;53.160;17.920;2023-05-07T02:47:39;26.30;;;18.00;;
79365;SDS011;68833;53.160;17.920;2023-05-07T02:50:07;24.80;;;16.30;;
79365;SDS011;68833;53.160;17.920;2023-05-07T02:52:34;26.60;;;16.30;;
79365;SDS011;68833;53.160;17.920;2023-05-07T02:55:05;26.60;;;17.20;;
79365;SDS011;68833;53.160;17.920;2023-05-07T02:57:32;25.70;;;20.00;;
79365;SDS011;68833;53.160;17.920;2023-05-07T02:59:59;23.20;;;19.00;;
79365;SDS011;68833;53.160;17.920;2023-05-07T03:02:36;21.20;;;15.10;;
79365;SDS011;68833;53.160;17.920;2023-05-07T03:05:04;20.20;;;14.40;;
79365;SDS011;68833;53.160;17.920;2023-05-07T03:07:31;21.00;;;13.80;;
79365;SDS011;68833;53.160;17.920;2023-05-07T03:09:59;26.70;;;14.70;;
79365;SDS011;68833;53.160;17.920;2023-05-07T03:12:26;22.20;;;15.10;;
79365;SDS011;68833;53.160;17.920;2023-05-07T03:14:54;22.60;;;13.30;;
79365;SDS011;68833;53.160;17.920;2023-05-07T03:17:21;20.40;;;12.50;;
79365;SDS011;68833;53.160;17.920;2023-05-07T03:19:48;22.30;;;12.50;;
79365;SDS011;68833;53.160;17.920;2023-05-07T03:22:15;22.70;;;13.30;;
79365;SDS011;68833;53.160;17.920;2023-05-07T03:24:43;20.10;;;12.10;;
79365;SDS011;68833;53.160;17.920;2023-05-07T03:27:10;23.30;;;13.30;;
79365;SDS011;68833;53.160;17.920;2023-05-07T03:29:37;19.70;;;12.60;;
79365;SDS011;68833;53.160;17.920;2023-05-07T03:32:04;69.80;;;34.60;;
79365;SDS011;68833;53.160;17.920;2023-05-07T03:34:32;21.80;;;12.40;;
79365;SDS011;68833;53.160;17.920;2023-05-07T03:37:00;18.70;;;11.60;;
79365;SDS011;68833;53.160;17.920;2023-05-07T03:39:27;20.50;;;11.30;;
79365;SDS011;68833;53.160;17.920;2023-05-07T03:41:55;24.30;;;14.10;;
79365;SDS011;68833;53.160;17.920;2023-05-07T03:44:23;22.10;;;13.10;;
79365;SDS011;68833;53.160;17.920;2023-05-07T03:46:51;18.10;;;12.00;;
79365;SDS011;68833;53.160;17.920;2023-05-07T03:49:18;19.50;;;13.10;;
79365;SDS011;68833;53.160;17.920;2023-05-07T03:51:45;17.80;;;11.80;;
79365;SDS011;68833;53.160;17.920;2023-05-07T03:54:13;21.40;;;12.20;;
79365;SDS011;68833;53.160;17.920;2023-05-07T03:56:44;18.50;;;13.00;;
79365;SDS011;68833;53.160;17.920;2023-05-07T03:59:12;19.10;;;12.90;;
79365;SDS011;68833;53.160;17.920;2023-05-07T04:01:40;19.00;;;12.50;;
79365;SDS011;68833;53.160;17.920;2023-05-07T04:04:07;19.60;;;11.90;;
79365;SDS011;68833;53.160;17.920;2023-05-07T04:06:35;16.10;;;10.50;;
79365;SDS011;68833;53.160;17.920;2023-05-07T04:09:02;21.00;;;12.50;;
79365;SDS011;68833;53.160;17.920;2023-05-07T04:11:29;20.20;;;13.20;;
79365;SDS011;68833;53.160;17.920;2023-05-07T04:13:56;22.50;;;14.20;;
79365;SDS011;68833;53.160;17.920;2023-05-07T04:16:23;33.20;;;16.30;;
79365;SDS011;68833;53.160;17.920;2023-05-07T04:18:50;18.80;;;12.80;;
79365;SDS011;68833;53.160;17.920;2023-05-07T04:21:19;19.00;;;12.40;;
79365;SDS011;68833;53.160;17.920;2023-05-07T04:23:47;21.90;;;12.60;;
79365;SDS011;68833;53.160;17.920;2023-05-07T04:26:15;18.30;;;11.10;;
79365;SDS011;68833;53.160;17.920;2023-05-07T04:28:44;20.30;;;12.50;;
79365;SDS011;68833;53.160;17.920;2023-05-07T04:31:11;22.80;;;13.30;;
79365;SDS011;68833;53.160;17.920;2023-05-07T04:33:39;21.90;;;13.90;;
79365;SDS011;68833;53.160;17.920;2023-05-07T04:36:09;19.60;;;12.50;;
79365;SDS011;68833;53.160;17.920;2023-05-07T04:38:40;20.70;;;14.20;;
79365;SDS011;68833;53.160;17.920;2023-05-07T04:41:08;20.60;;;12.70;;
79365;SDS011;68833;53.160;17.920;2023-05-07T04:43:39;23.00;;;13.50;;
79365;SDS011;68833;53.160;17.920;2023-05-07T04:46:06;21.30;;;12.80;;
79365;SDS011;68833;53.160;17.920;2023-05-07T04:48:34;23.50;;;14.30;;
79365;SDS011;68833;53.160;17.920;2023-05-07T04:51:01;24.20;;;13.40;;
79365;SDS011;68833;53.160;17.920;2023-05-07T04:53:29;22.80;;;12.50;;
79365;SDS011;68833;53.160;17.920;2023-05-07T04:55:57;19.90;;;12.60;;
79365;SDS011;68833;53.160;17.920;2023-05-07T04:58:30;19.40;;;12.50;;
79365;SDS011;68833;53.160;17.920;2023-05-07T05:00:58;18.80;;;12.10;;
79365;SDS011;68833;53.160;17.920;2023-05-07T05:03:26;25.60;;;14.30;;
79365;SDS011;68833;53.160;17.920;2023-05-07T05:05:54;23.10;;;14.00;;
79365;SDS011;68833;53.160;17.920;2023-05-07T05:08:21;19.50;;;12.00;;
79365;SDS011;68833;53.160;17.920;2023-05-07T05:10:49;19.70;;;12.50;;
79365;SDS011;68833;53.160;17.920;2023-05-07T05:13:16;20.00;;;12.30;;
79365;SDS011;68833;53.160;17.920;2023-05-07T05:15:44;18.80;;;12.80;;
79365;SDS011;68833;53.160;17.920;2023-05-07T05:18:12;21.30;;;13.20;;
79365;SDS011;68833;53.160;17.920;2023-05-07T05:20:40;18.60;;;12.90;;
79365;SDS011;68833;53.160;17.920;2023-05-07T05:23:08;20.80;;;13.60;;
79365;SDS011;68833;53.160;17.920;2023-05-07T05:25:35;20.90;;;12.50;;
79365;SDS011;68833;53.160;17.920;2023-05-07T05:28:04;21.70;;;14.10;;
79365;SDS011;68833;53.160;17.920;2023-05-07T05:30:34;21.70;;;13.20;;
79365;SDS011;68833;53.160;17.920;2023-05-07T05:33:01;23.00;;;14.30;;
79365;SDS011;68833;53.160;17.920;2023-05-07T05:35:29;23.10;;;15.10;;
79365;SDS011;68833;53.160;17.920;2023-05-07T05:37:59;21.10;;;12.90;;
79365;SDS011;68833;53.160;17.920;2023-05-07T05:40:27;21.40;;;12.80;;
79365;SDS011;68833;53.160;17.920;2023-05-07T05:42:55;25.00;;;14.40;;
79365;SDS011;68833;53.160;17.920;2023-05-07T05:45:25;21.80;;;14.20;;
79365;SDS011;68833;53.160;17.920;2023-05-07T05:47:55;25.10;;;15.10;;
79365;SDS011;68833;53.160;17.920;2023-05-07T05:50:23;24.50;;;14.20;;
79365;SDS011;68833;53.160;17.920;2023-05-07T05:52:53;20.70;;;13.00;;
79365;SDS011;68833;53.160;17.920;2023-05-07T05:55:21;20.20;;;11.40;;
79365;SDS011;68833;53.160;17.920;2023-05-07T05:57:50;21.10;;;12.90;;
79365;SDS011;68833;53.160;17.920;2023-05-07T06:00:18;24.60;;;14.10;;
79365;SDS011;68833;53.160;17.920;2023-05-07T06:02:45;20.90;;;13.70;;
79365;SDS011;68833;53.160;17.920;2023-05-07T06:05:15;23.30;;;14.00;;
79365;SDS011;68833;53.160;17.920;2023-05-07T06:07:46;23.80;;;13.60;;
79365;SDS011;68833;53.160;17.920;2023-05-07T06:10:13;22.30;;;14.10;;
79365;SDS011;68833;53.160;17.920;2023-05-07T06:12:41;22.50;;;13.90;;
79365;SDS011;68833;53.160;17.920;2023-05-07T06:15:09;23.00;;;13.60;;
79365;SDS011;68833;53.160;17.920;2023-05-07T06:17:37;25.80;;;15.20;;
79365;SDS011;68833;53.160;17.920;2023-05-07T06:20:05;19.70;;;10.90;;
79365;SDS011;68833;53.160;17.920;2023-05-07T06:22:33;19.00;;;10.70;;
79365;SDS011;68833;53.160;17.920;2023-05-07T06:25:00;21.00;;;11.60;;
79365;SDS011;68833;53.160;17.920;2023-05-07T06:27:29;18.90;;;11.30;;
79365;SDS011;68833;53.160;17.920;2023-05-07T06:29:57;20.40;;;12.20;;
79365;SDS011;68833;53.160;17.920;2023-05-07T06:32:24;18.50;;;12.40;;
79365;SDS011;68833;53.160;17.920;2023-05-07T06:34:51;19.10;;;11.80;;
79365;SDS011;68833;53.160;17.920;2023-05-07T06:37:19;43.40;;;23.30;;
79365;SDS011;68833;53.160;17.920;2023-05-07T06:39:55;18.60;;;11.40;;
79365;SDS011;68833;53.160;17.920;2023-05-07T06:42:22;19.40;;;11.00;;
79365;SDS011;68833;53.160;17.920;2023-05-07T06:44:50;25.70;;;14.40;;
79365;SDS011;68833;53.160;17.920;2023-05-07T06:47:18;14.00;;;8.90;;
79365;SDS011;68833;53.160;17.920;2023-05-07T06:49:47;12.90;;;8.60;;
79365;SDS011;68833;53.160;17.920;2023-05-07T06:52:17;30.80;;;15.90;;
79365;SDS011;68833;53.160;17.920;2023-05-07T06:54:49;13.80;;;10.30;;
79365;SDS011;68833;53.160;17.920;2023-05-07T06:57:17;14.60;;;8.90;;
79365;SDS011;68833;53.160;17.920;2023-05-07T06:59:44;13.60;;;9.30;;
79365;SDS011;68833;53.160;17.920;2023-05-07T07:02:11;10.30;;;7.10;;
79365;SDS011;68833;53.160;17.920;2023-05-07T07:04:39;13.00;;;8.20;;
79365;SDS011;68833;53.160;17.920;2023-05-07T07:07:09;14.20;;;9.00;;
79365;SDS011;68833;53.160;17.920;2023-05-07T07:09:37;13.00;;;8.40;;
79365;SDS011;68833;53.160;17.920;2023-05-07T07:12:04;8.20;;;5.60;;
79365;SDS011;68833;53.160;17.920;2023-05-07T07:14:31;11.20;;;7.10;;
79365;SDS011;68833;53.160;17.920;2023-05-07T07:16:58;9.00;;;6.90;;
79365;SDS011;68833;53.160;17.920;2023-05-07T07:19:27;10.90;;;7.50;;
79365;SDS011;68833;53.160;17.920;2023-05-07T07:21:55;11.50;;;7.20;;
79365;SDS011;68833;53.160;17.920;2023-05-07T07:24:22;14.40;;;7.70;;
79365;SDS011;68833;53.160;17.920;2023-05-07T07:26:51;11.80;;;7.70;;
79365;SDS011;68833;53.160;17.920;2023-05-07T07:29:19;12.70;;;8.20;;
79365;SDS011;68833;53.160;17.920;2023-05-07T07:31:48;13.40;;;8.10;;
79365;SDS011;68833;53.160;17.920;2023-05-07T07:34:16;12.10;;;8.50;;
79365;SDS011;68833;53.160;17.920;2023-05-07T07:36:44;13.90;;;9.60;;
79365;SDS011;68833;53.160;17.920;2023-05-07T07:39:12;16.40;;;8.40;;
79365;SDS011;68833;53.160;17.920;2023-05-07T07:41:40;11.50;;;6.90;;
79365;SDS011;68833;53.160;17.920;2023-05-07T07:44:07;12.60;;;6.30;;
79365;SDS011;68833;53.160;17.920;2023-05-07T07:46:36;9.60;;;5.70;;
79365;SDS011;68833;53.160;17.920;2023-05-07T07:49:05;10.50;;;5.50;;
79365;SDS011;68833;53.160;17.920;2023-05-07T07:51:53;14.60;;;6.60;;
79365;SDS011;68833;53.160;17.920;2023-05-07T07:54:21;8.40;;;5.10;;
79365;SDS011;68833;53.160;17.920;2023-05-07T07:56:50;9.10;;;5.00;;
79365;SDS011;68833;53.160;17.920;2023-05-07T07:59:19;10.20;;;5.30;;
79365;SDS011;68833;53.160;17.920;2023-05-07T08:01:49;8.10;;;4.80;;
79365;SDS011;68833;53.160;17.920;2023-05-07T08:04:20;8.20;;;4.80;;
79365;SDS011;68833;53.160;17.920;2023-05-07T08:06:47;8.00;;;4.30;;
79365;SDS011;68833;53.160;17.920;2023-05-07T08:09:15;6.20;;;4.60;;
79365;SDS011;68833;53.160;17.920;2023-05-07T08:11:42;7.70;;;4.10;;
79365;SDS011;68833;53.160;17.920;2023-05-07T08:14:10;11.00;;;4.60;;
79365;SDS011;68833;53.160;17.920;2023-05-07T08:16:38;8.60;;;5.00;;
79365;SDS011;68833;53.160;17.920;2023-05-07T08:19:09;6.50;;;3.90;;
79365;SDS011;68833;53.160;17.920;2023-05-07T08:21:38;6.10;;;3.40;;
79365;SDS011;68833;53.160;17.920;2023-05-07T08:24:06;7.80;;;4.80;;
79365;SDS011;68833;53.160;17.920;2023-05-07T08:26:33;6.30;;;4.50;;
79365;SDS011;68833;53.160;17.920;2023-05-07T08:29:02;13.70;;;9.30;;
79365;SDS011;68833;53.160;17.920;2023-05-07T08:31:29;6.90;;;3.80;;
79365;SDS011;68833;53.160;17.920;2023-05-07T08:33:58;5.70;;;4.00;;
79365;SDS011;68833;53.160;17.920;2023-05-07T08:36:27;9.10;;;3.80;;
79365;SDS011;68833;53.160;17.920;2023-05-07T08:38:55;7.30;;;4.00;;
79365;SDS011;68833;53.160;17.920;2023-05-07T08:41:22;7.40;;;4.40;;
79365;SDS011;68833;53.160;17.920;2023-05-07T08:43:50;9.80;;;3.70;;
79365;SDS011;68833;53.160;17.920;2023-05-07T08:46:19;5.50;;;3.80;;
79365;SDS011;68833;53.160;17.920;2023-05-07T08:48:48;7.50;;;3.50;;
79365;SDS011;68833;53.160;17.920;2023-05-07T08:51:16;7.20;;;4.20;;
79365;SDS011;68833;53.160;17.920;2023-05-07T08:53:48;6.20;;;3.70;;
79365;SDS011;68833;53.160;17.920;2023-05-07T08:56:22;6.00;;;3.70;;
79365;SDS011;68833;53.160;17.920;2023-05-07T08:58:51;10.40;;;6.60;;
79365;SDS011;68833;53.160;17.920;2023-05-07T09:01:18;7.30;;;4.30;;
79365;SDS011;68833;53.160;17.920;2023-05-07T09:03:47;7.20;;;4.00;;
79365;SDS011;68833;53.160;17.920;2023-05-07T09:06:16;16.00;;;9.20;;
79365;SDS011;68833;53.160;17.920;2023-05-07T09:08:51;8.40;;;5.50;;
79365;SDS011;68833;53.160;17.920;2023-05-07T09:11:21;9.80;;;5.10;;
79365;SDS011;68833;53.160;17.920;2023-05-07T09:13:55;7.00;;;4.00;;
79365;SDS011;68833;53.160;17.920;2023-05-07T09:16:25;5.40;;;3.40;;
79365;SDS011;68833;53.160;17.920;2023-05-07T09:18:53;7.10;;;3.60;;
79365;SDS011;68833;53.160;17.920;2023-05-07T09:21:22;5.70;;;4.00;;
79365;SDS011;68833;53.160;17.920;2023-05-07T09:23:50;5.50;;;3.40;;
79365;SDS011;68833;53.160;17.920;2023-05-07T09:26:23;7.40;;;3.60;;
79365;SDS011;68833;53.160;17.920;2023-05-07T09:28:54;3.70;;;2.70;;
79365;SDS011;68833;53.160;17.920;2023-05-07T09:31:21;3.60;;;2.40;;
79365;SDS011;68833;53.160;17.920;2023-05-07T09:33:50;7.90;;;3.10;;
79365;SDS011;68833;53.160;17.920;2023-05-07T09:36:17;5.70;;;3.10;;
79365;SDS011;68833;53.160;17.920;2023-05-07T09:38:45;3.90;;;2.10;;
79365;SDS011;68833;53.160;17.920;2023-05-07T09:41:12;4.00;;;2.20;;
79365;SDS011;68833;53.160;17.920;2023-05-07T09:43:53;5.10;;;3.10;;
79365;SDS011;68833;53.160;17.920;2023-05-07T09:46:23;5.00;;;2.40;;
79365;SDS011;68833;53.160;17.920;2023-05-07T09:48:57;3.60;;;2.40;;
79365;SDS011;68833;53.160;17.920;2023-05-07T09:51:29;3.50;;;2.70;;
79365;SDS011;68833;53.160;17.920;2023-05-07T09:54:04;4.90;;;2.20;;
79365;SDS011;68833;53.160;17.920;2023-05-07T09:56:33;5.20;;;2.40;;
79365;SDS011;68833;53.160;17.920;2023-05-07T09:59:05;3.80;;;2.40;;
79365;SDS011;68833;53.160;17.920;2023-05-07T10:03:57;3.40;;;2.10;;
79365;SDS011;68833;53.160;17.920;2023-05-07T10:06:25;4.20;;;2.80;;
79365;SDS011;68833;53.160;17.920;2023-05-07T10:08:52;4.00;;;2.30;;
79365;SDS011;68833;53.160;17.920;2023-05-07T10:11:21;5.00;;;2.80;;
79365;SDS011;68833;53.160;17.920;2023-05-07T10:13:48;3.50;;;2.50;;
79365;SDS011;68833;53.160;17.920;2023-05-07T10:16:15;18.00;;;9.80;;
79365;SDS011;68833;53.160;17.920;2023-05-07T10:18:46;3.90;;;3.00;;
79365;SDS011;68833;53.160;17.920;2023-05-07T10:21:18;4.90;;;2.90;;
79365;SDS011;68833;53.160;17.920;2023-05-07T10:23:51;5.90;;;3.20;;
79365;SDS011;68833;53.160;17.920;2023-05-07T10:26:32;5.00;;;3.10;;
79365;SDS011;68833;53.160;17.920;2023-05-07T10:29:11;5.90;;;2.70;;
79365;SDS011;68833;53.160;17.920;2023-05-07T10:34:40;6.60;;;3.20;;
79365;SDS011;68833;53.160;17.920;2023-05-07T10:37:12;6.00;;;2.80;;
79365;SDS011;68833;53.160;17.920;2023-05-07T10:39:39;6.80;;;2.80;;
79365;SDS011;68833;53.160;17.920;2023-05-07T10:42:07;4.10;;;3.20;;
79365;SDS011;68833;53.160;17.920;2023-05-07T10:44:37;5.00;;;3.30;;
79365;SDS011;68833;53.160;17.920;2023-05-07T10:47:24;4.40;;;3.50;;
79365;SDS011;68833;53.160;17.920;2023-05-07T10:52:33;4.90;;;2.90;;
79365;SDS011;68833;53.160;17.920;2023-05-07T10:55:23;3.90;;;3.00;;
79365;SDS011;68833;53.160;17.920;2023-05-07T11:00:48;4.70;;;3.30;;
79365;SDS011;68833;53.160;17.920;2023-05-07T11:03:24;6.10;;;2.60;;
79365;SDS011;68833;53.160;17.920;2023-05-07T11:06:14;5.20;;;3.30;;
79365;SDS011;68833;53.160;17.920;2023-05-07T11:17:27;4.30;;;2.50;;
79365;SDS011;68833;53.160;17.920;2023-05-07T11:20:01;3.90;;;2.90;;
79365;SDS011;68833;53.160;17.920;2023-05-07T11:22:39;6.80;;;3.10;;
79365;SDS011;68833;53.160;17.920;2023-05-07T11:25:42;4.60;;;2.40;;
79365;SDS011;68833;53.160;17.920;2023-05-07T11:28:14;5.50;;;2.80;;
79365;SDS011;68833;53.160;17.920;2023-05-07T11:30:57;4.30;;;2.80;;
79365;SDS011;68833;53.160;17.920;2023-05-07T11:33:24;5.00;;;3.00;;
79365;SDS011;68833;53.160;17.920;2023-05-07T11:35:55;5.90;;;3.10;;
79365;SDS011;68833;53.160;17.920;2023-05-07T11:38:25;5.40;;;3.60;;
79365;SDS011;68833;53.160;17.920;2023-05-07T11:40:52;4.30;;;2.60;;
79365;SDS011;68833;53.160;17.920;2023-05-07T11:43:19;5.30;;;3.10;;
79365;SDS011;68833;53.160;17.920;2023-05-07T11:45:46;4.60;;;2.60;;
79365;SDS011;68833;53.160;17.920;2023-05-07T11:48:13;5.20;;;3.10;;
79365;SDS011;68833;53.160;17.920;2023-05-07T11:50:59;4.60;;;3.00;;
79365;SDS011;68833;53.160;17.920;2023-05-07T11:53:39;6.00;;;3.40;;
79365;SDS011;68833;53.160;17.920;2023-05-07T11:56:11;4.40;;;3.00;;
79365;SDS011;68833;53.160;17.920;2023-05-07T11:58:40;4.70;;;2.90;;
79365;SDS011;68833;53.160;17.920;2023-05-07T12:01:08;4.30;;;3.30;;
79365;SDS011;68833;53.160;17.920;2023-05-07T12:03:41;4.40;;;2.40;;
79365;SDS011;68833;53.160;17.920;2023-05-07T12:06:10;3.90;;;2.80;;
79365;SDS011;68833;53.160;17.920;2023-05-07T12:08:38;4.50;;;2.70;;
79365;SDS011;68833;53.160;17.920;2023-05-07T12:11:09;3.80;;;2.70;;
79365;SDS011;68833;53.160;17.920;2023-05-07T12:13:40;3.70;;;2.70;;
79365;SDS011;68833;53.160;17.920;2023-05-07T12:16:07;4.90;;;2.90;;
79365;SDS011;68833;53.160;17.920;2023-05-07T12:18:35;5.10;;;2.60;;
79365;SDS011;68833;53.160;17.920;2023-05-07T12:23:31;3.20;;;2.40;;
79365;SDS011;68833;53.160;17.920;2023-05-07T12:25:57;5.10;;;2.70;;
79365;SDS011;68833;53.160;17.920;2023-05-07T12:28:25;4.30;;;2.50;;
79365;SDS011;68833;53.160;17.920;2023-05-07T12:30:51;5.70;;;3.30;;
79365;SDS011;68833;53.160;17.920;2023-05-07T12:33:19;5.30;;;3.00;;
79365;SDS011;68833;53.160;17.920;2023-05-07T12:35:53;4.40;;;2.70;;
79365;SDS011;68833;53.160;17.920;2023-05-07T12:38:20;3.70;;;2.40;;
79365;SDS011;68833;53.160;17.920;2023-05-07T12:40:47;4.40;;;2.70;;
79365;SDS011;68833;53.160;17.920;2023-05-07T12:43:17;3.40;;;2.20;;
79365;SDS011;68833;53.160;17.920;2023-05-07T12:45:45;3.10;;;2.50;;
79365;SDS011;68833;53.160;17.920;2023-05-07T12:48:13;5.70;;;2.80;;
79365;SDS011;68833;53.160;17.920;2023-05-07T12:50:39;4.10;;;2.00;;
79365;SDS011;68833;53.160;17.920;2023-05-07T12:53:06;3.10;;;2.00;;
79365;SDS011;68833;53.160;17.920;2023-05-07T12:55:47;2.70;;;2.10;;
79365;SDS011;68833;53.160;17.920;2023-05-07T12:58:25;3.40;;;2.40;;
79365;SDS011;68833;53.160;17.920;2023-05-07T13:00:53;3.10;;;1.90;;
79365;SDS011;68833;53.160;17.920;2023-05-07T13:03:25;3.10;;;2.60;;
79365;SDS011;68833;53.160;17.920;2023-05-07T13:05:59;3.50;;;2.40;;
79365;SDS011;68833;53.160;17.920;2023-05-07T13:08:31;2.90;;;2.30;;
79365;SDS011;68833;53.160;17.920;2023-05-07T13:11:00;4.90;;;2.70;;
79365;SDS011;68833;53.160;17.920;2023-05-07T13:13:36;5.60;;;2.90;;
79365;SDS011;68833;53.160;17.920;2023-05-07T13:16:04;3.60;;;2.70;;
79365;SDS011;68833;53.160;17.920;2023-05-07T13:18:33;4.30;;;2.90;;
79365;SDS011;68833;53.160;17.920;2023-05-07T13:21:00;4.80;;;2.60;;
79365;SDS011;68833;53.160;17.920;2023-05-07T13:23:27;4.30;;;2.60;;
79365;SDS011;68833;53.160;17.920;2023-05-07T13:25:54;3.70;;;2.60;;
79365;SDS011;68833;53.160;17.920;2023-05-07T13:28:26;4.80;;;2.70;;
79365;SDS011;68833;53.160;17.920;2023-05-07T13:30:52;3.50;;;2.50;;
79365;SDS011;68833;53.160;17.920;2023-05-07T13:33:20;4.00;;;2.40;;
79365;SDS011;68833;53.160;17.920;2023-05-07T13:35:46;4.00;;;2.40;;
79365;SDS011;68833;53.160;17.920;2023-05-07T13:38:12;9.10;;;2.90;;
79365;SDS011;68833;53.160;17.920;2023-05-07T13:40:39;4.00;;;2.80;;
79365;SDS011;68833;53.160;17.920;2023-05-07T13:43:05;4.60;;;2.70;;
79365;SDS011;68833;53.160;17.920;2023-05-07T13:45:31;7.50;;;2.70;;
79365;SDS011;68833;53.160;17.920;2023-05-07T13:47:58;3.60;;;2.00;;
79365;SDS011;68833;53.160;17.920;2023-05-07T13:50:24;4.50;;;1.80;;
79365;SDS011;68833;53.160;17.920;2023-05-07T13:52:52;6.20;;;3.00;;
79365;SDS011;68833;53.160;17.920;2023-05-07T13:55:21;3.50;;;2.40;;
79365;SDS011;68833;53.160;17.920;2023-05-07T13:57:56;3.20;;;2.30;;
79365;SDS011;68833;53.160;17.920;2023-05-07T14:00:24;2.60;;;1.70;;
79365;SDS011;68833;53.160;17.920;2023-05-07T14:02:50;3.60;;;2.60;;
79365;SDS011;68833;53.160;17.920;2023-05-07T14:05:17;2.60;;;1.90;;
79365;SDS011;68833;53.160;17.920;2023-05-07T14:07:43;3.40;;;2.60;;
79365;SDS011;68833;53.160;17.920;2023-05-07T14:10:10;3.70;;;2.10;;
79365;SDS011;68833;53.160;17.920;2023-05-07T14:12:36;3.50;;;2.40;;
79365;SDS011;68833;53.160;17.920;2023-05-07T14:15:03;104.00;;;68.90;;
79365;SDS011;68833;53.160;17.920;2023-05-07T14:17:29;5.70;;;4.20;;
79365;SDS011;68833;53.160;17.920;2023-05-07T14:19:57;4.50;;;2.50;;
79365;SDS011;68833;53.160;17.920;2023-05-07T14:22:23;5.20;;;3.40;;
79365;SDS011;68833;53.160;17.920;2023-05-07T14:24:50;8.20;;;4.70;;
79365;SDS011;68833;53.160;17.920;2023-05-07T14:27:16;4.20;;;2.60;;
79365;SDS011;68833;53.160;17.920;2023-05-07T14:29:42;5.50;;;3.00;;
79365;SDS011;68833;53.160;17.920;2023-05-07T14:32:09;4.20;;;2.80;;
79365;SDS011;68833;53.160;17.920;2023-05-07T14:34:35;4.10;;;2.70;;
79365;SDS011;68833;53.160;17.920;2023-05-07T14:37:01;4.80;;;2.90;;
79365;SDS011;68833;53.160;17.920;2023-05-07T14:39:27;3.30;;;2.50;;
79365;SDS011;68833;53.160;17.920;2023-05-07T14:41:54;5.60;;;3.30;;
79365;SDS011;68833;53.160;17.920;2023-05-07T14:44:21;4.00;;;3.20;;
79365;SDS011;68833;53.160;17.920;2023-05-07T14:46:48;7.20;;;2.70;;
79365;SDS011;68833;53.160;17.920;2023-05-07T14:49:14;6.40;;;2.70;;
79365;SDS011;68833;53.160;17.920;2023-05-07T14:51:43;3.00;;;2.40;;
79365;SDS011;68833;53.160;17.920;2023-05-07T14:54:11;3.70;;;2.40;;